Time;durP1;ratioP1;P1;durP2;ratioP2;P2;SDS_P1;SDS_P2;PMS_P1;PMS_P2;Temp;Humidity;BMP_temperature;BMP_pressure;BME280_temperature;BME280_humidity;BME280_pressure;Samples;Min_cycle;Max_cycle;Signal;HPM_P1;HPM_P2
2024/01/05 00:01:49;;;;;;;5.00;1.88;;;;;;;18.94;46.22;99816.25;4968102;28;20070;-67
2024/01/05 00:04:15;;;;;;;4.37;1.53;;;;;;;18.85;46.24;99798.72;4968609;28;20126;-66
2024/01/05 00:06:40;;;;;;;6.10;1.90;;;;;;;18.90;46.33;99798.22;4968708;28;20308;-66
2024/01/05 00:09:06;;;;;;;6.68;2.20;;;;;;;18.84;46.36;99792.59;4968901;28;20484;-66
2024/01/05 00:11:32;;;;;;;5.32;1.58;;;;;;;18.91;46.43;99805.19;4968681;28;20027;-67
2024/01/05 00:13:57;;;;;;;4.95;1.73;;;;;;;18.89;46.53;99802.69;4968539;28;20041;-66
2024/01/05 00:16:23;;;;;;;4.85;1.67;;;;;;;18.83;46.40;99787.44;4968407;28;20034;-67
2024/01/05 00:18:49;;;;;;;4.30;1.70;;;;;;;18.85;46.37;99796.91;4967950;28;20451;-67
2024/01/05 00:21:25;;;;;;;4.72;1.60;;;;;;;18.77;46.55;99786.25;4968691;28;20031;-66
2024/01/05 00:23:52;;;;;;;3.78;1.42;;;;;;;18.85;46.50;99796.09;4968520;28;20034;-66
2024/01/05 00:26:18;;;;;;;4.38;1.55;;;;;;;18.84;46.41;99797.06;4967148;28;20038;-67
2024/01/05 00:28:44;;;;;;;5.18;1.90;;;;;;;18.81;46.41;99790.22;4968654;28;20027;-67
2024/01/05 00:31:11;;;;;;;5.03;1.63;;;;;;;18.79;46.46;99779.00;4968509;28;20069;-67
2024/01/05 00:33:37;;;;;;;6.32;1.90;;;;;;;18.70;46.38;99769.38;4968661;28;20475;-67
2024/01/05 00:36:04;;;;;;;3.92;1.50;;;;;;;18.80;46.39;99785.09;4968023;28;20031;-66
2024/01/05 00:38:29;;;;;;;4.72;1.55;;;;;;;18.71;46.40;99763.13;4968010;28;20030;-67
2024/01/05 00:40:54;;;;;;;4.55;1.35;;;;;;;18.78;46.33;99779.97;4968149;28;20100;-67
2024/01/05 00:43:19;;;;;;;5.23;1.47;;;;;;;18.66;46.18;99755.66;4968397;28;20125;-67
2024/01/05 00:45:45;;;;;;;4.57;1.40;;;;;;;18.76;46.14;99760.84;4968027;28;20303;-67
2024/01/05 00:48:10;;;;;;;4.73;1.60;;;;;;;18.68;46.54;99752.88;4968269;28;20316;-68
2024/01/05 00:50:35;;;;;;;3.65;1.40;;;;;;;18.75;46.39;99761.81;4967811;28;20316;-67
2024/01/05 00:53:01;;;;;;;7.00;1.87;;;;;;;18.74;46.12;99760.19;4968112;28;20030;-67
2024/01/05 00:55:26;;;;;;;5.53;1.52;;;;;;;18.71;46.37;99757.00;4967818;28;20277;-68
2024/01/05 00:57:51;;;;;;;5.38;1.70;;;;;;;18.74;46.57;99761.97;4968005;28;20035;-68
2024/01/05 01:00:17;;;;;;;4.38;1.50;;;;;;;18.73;46.50;99755.06;4967837;28;20057;-67
2024/01/05 01:02:42;;;;;;;4.25;1.60;;;;;;;18.45;46.22;99713.81;4967188;28;20035;-68
2024/01/05 01:05:08;;;;;;;5.13;1.67;;;;;;;18.62;46.39;99735.84;4967631;28;20294;-68
2024/01/05 01:07:33;;;;;;;5.43;1.58;;;;;;;18.60;46.44;99731.72;4967883;28;20089;-67
2024/01/05 01:09:59;;;;;;;4.90;1.67;;;;;;;18.64;46.30;99736.53;4967675;28;20376;-67
2024/01/05 01:12:25;;;;;;;4.35;1.45;;;;;;;18.69;46.31;99736.03;4967628;28;20117;-67
2024/01/05 01:14:51;;;;;;;4.95;1.80;;;;;;;18.67;46.50;99733.59;4967744;28;20038;-67
2024/01/05 01:17:16;;;;;;;4.88;1.60;;;;;;;18.66;46.41;99736.38;4967342;28;20045;-68
2024/01/05 01:19:42;;;;;;;4.93;1.60;;;;;;;18.64;46.46;99730.41;4967840;28;20170;-67
2024/01/05 01:22:07;;;;;;;4.17;1.47;;;;;;;18.63;46.61;99731.41;4967724;28;20982;-67
2024/01/05 01:24:32;;;;;;;5.13;1.60;;;;;;;18.56;46.35;99715.34;4967391;28;20347;-67
2024/01/05 01:26:57;;;;;;;5.68;1.70;;;;;;;18.61;46.32;99721.00;4967560;28;21074;-67
2024/01/05 01:29:24;;;;;;;6.65;1.88;;;;;;;18.61;46.40;99712.25;4967575;28;20054;-66
2024/01/05 01:31:50;;;;;;;5.07;1.60;;;;;;;18.63;46.51;99724.31;4967045;28;20039;-67
2024/01/05 01:34:15;;;;;;;3.65;1.40;;;;;;;18.62;46.45;99706.81;4967249;28;20090;-67
2024/01/05 01:36:41;;;;;;;3.88;1.40;;;;;;;18.59;46.50;99699.19;4967259;28;20035;-67
2024/01/05 01:39:06;;;;;;;6.65;1.75;;;;;;;18.53;46.53;99688.44;4966643;28;20360;-67
2024/01/05 01:41:31;;;;;;;5.70;1.80;;;;;;;18.55;46.57;99691.75;4966551;28;20041;-67
2024/01/05 01:43:56;;;;;;;4.10;1.30;;;;;;;18.49;46.48;99688.75;4967287;28;20041;-67
2024/01/05 01:46:23;;;;;;;4.95;1.40;;;;;;;18.59;46.40;99698.38;4967130;28;20069;-66
2024/01/05 01:48:49;;;;;;;3.15;1.20;;;;;;;18.58;46.38;99689.66;4967281;28;20093;-66
2024/01/05 01:51:15;;;;;;;4.65;1.60;;;;;;;18.48;46.43;99675.72;4966502;28;20041;-66
2024/01/05 01:53:41;;;;;;;4.20;1.63;;;;;;;18.57;46.35;99684.53;4966822;28;20056;-65
2024/01/05 01:56:10;;;;;;;4.40;1.35;;;;;;;18.56;46.62;99686.31;4966774;28;20112;-66
2024/01/05 01:58:37;;;;;;;5.85;1.70;;;;;;;18.56;46.24;99678.41;4966796;28;20031;-67
2024/01/05 02:01:04;;;;;;;4.40;1.20;;;;;;;18.55;46.38;99678.56;4966582;28;20034;-68
2024/01/05 02:03:30;;;;;;;3.97;1.33;;;;;;;18.47;46.51;99664.34;4966893;28;20369;-66
2024/01/05 02:05:56;;;;;;;4.65;1.48;;;;;;;18.55;46.34;99662.72;4966196;28;20082;-66
2024/01/05 02:08:21;;;;;;;6.13;1.85;;;;;;;18.53;46.50;99656.78;4967622;28;20480;-67
2024/01/05 02:10:47;;;;;;;5.05;1.50;;;;;;;18.53;46.37;99654.16;4967718;28;20037;-67
2024/01/05 02:13:12;;;;;;;3.45;1.25;;;;;;;18.53;46.50;99648.88;4967347;28;20027;-67
2024/01/05 02:15:37;;;;;;;4.93;1.40;;;;;;;18.48;46.16;99637.00;4967714;28;20031;-67
2024/01/05 02:18:13;;;;;;;4.47;1.40;;;;;;;18.49;46.28;99635.16;4967572;28;21114;-67
2024/01/05 02:20:39;;;;;;;3.97;1.45;;;;;;;18.49;46.10;99636.00;4966066;28;20273;-68
2024/01/05 02:23:11;;;;;;;4.90;1.30;;;;;;;18.44;46.10;99626.91;4966922;28;20068;-67
2024/01/05 02:25:37;;;;;;;3.65;1.30;;;;;;;18.40;46.13;99613.19;4966675;28;20089;-68
2024/01/05 02:28:02;;;;;;;4.20;1.65;;;;;;;18.50;46.44;99634.19;4966974;28;20463;-67
2024/01/05 02:30:28;;;;;;;4.70;1.40;;;;;;;18.48;46.31;99629.06;4966355;28;20058;-66
2024/01/05 02:32:53;;;;;;;4.78;1.50;;;;;;;18.48;46.19;99621.16;4966538;28;20031;-67
2024/01/05 02:35:18;;;;;;;5.75;1.58;;;;;;;18.45;46.03;99616.19;4966709;28;20027;-67
2024/01/05 02:37:43;;;;;;;3.92;1.45;;;;;;;18.38;46.34;99603.78;4966760;28;20057;-66
2024/01/05 02:40:12;;;;;;;4.20;1.27;;;;;;;18.44;46.18;99614.53;4966575;28;20039;-67
2024/01/05 02:42:38;;;;;;;6.57;1.35;;;;;;;18.46;46.09;99611.75;4966268;28;20038;-66
2024/01/05 02:45:04;;;;;;;3.67;1.38;;;;;;;18.34;45.95;99584.81;4967621;28;20043;-67
2024/01/05 02:47:30;;;;;;;2.60;1.00;;;;;;;18.38;46.26;99590.59;4969871;28;20081;-67
2024/01/05 02:49:55;;;;;;;3.35;1.15;;;;;;;18.34;46.09;99584.81;4970133;28;20042;-67
2024/01/05 02:52:21;;;;;;;5.07;1.40;;;;;;;18.36;46.21;99582.84;4969772;28;20462;-67
2024/01/05 02:54:46;;;;;;;4.63;1.50;;;;;;;18.32;46.38;99570.94;4969591;28;20046;-67
2024/01/05 02:57:11;;;;;;;3.50;0.98;;;;;;;18.42;46.19;99590.13;4970097;28;20051;-66
2024/01/05 02:59:37;;;;;;;3.47;0.95;;;;;;;18.40;46.06;99586.78;4970453;28;20038;-67
2024/01/05 03:02:02;;;;;;;4.70;1.30;;;;;;;18.34;46.03;99573.41;4969080;28;20050;-67
2024/01/05 03:04:27;;;;;;;5.35;1.50;;;;;;;18.41;46.10;99580.56;4970363;28;20101;-67
2024/01/05 03:06:53;;;;;;;4.25;1.30;;;;;;;18.29;46.14;99555.41;4970530;28;20034;-68
2024/01/05 03:09:18;;;;;;;4.07;1.20;;;;;;;18.28;45.93;99564.34;4970560;28;20399;-67
2024/01/05 03:11:43;;;;;;;4.00;1.20;;;;;;;18.28;46.13;99561.69;4970859;28;20272;-67
2024/01/05 03:14:08;;;;;;;3.30;1.20;;;;;;;18.34;46.22;99565.50;4970591;28;20407;-67
2024/01/05 03:16:34;;;;;;;3.53;1.10;;;;;;;18.29;46.13;99560.69;4970676;28;20267;-67
2024/01/05 03:18:59;;;;;;;3.47;1.20;;;;;;;18.37;45.90;99562.56;4970347;28;20030;-67
2024/01/05 03:21:26;;;;;;;3.63;1.33;;;;;;;18.37;46.04;99554.63;4970554;28;20304;-67
2024/01/05 03:23:51;;;;;;;3.95;1.30;;;;;;;18.27;46.17;99538.94;4970262;28;20030;-67
2024/01/05 03:26:16;;;;;;;2.97;1.00;;;;;;;18.36;46.07;99552.97;4970364;28;20031;-66
2024/01/05 03:28:41;;;;;;;3.92;1.10;;;;;;;18.26;45.97;99537.28;4970346;28;20047;-66
2024/01/05 03:31:13;;;;;;;4.27;1.10;;;;;;;18.26;46.01;99529.34;4970681;28;20448;-67
2024/01/05 03:33:41;;;;;;;3.83;1.17;;;;;;;18.31;46.26;99535.00;4969517;28;20816;-67
2024/01/05 03:36:07;;;;;;;4.60;1.30;;;;;;;18.30;46.18;99531.53;4969360;28;20039;-67
2024/01/05 03:38:32;;;;;;;2.67;1.02;;;;;;;18.26;46.10;99526.72;4969074;28;20547;-66
2024/01/05 03:40:58;;;;;;;3.80;1.10;;;;;;;18.23;45.95;99519.97;4969423;28;20042;-67
2024/01/05 03:43:24;;;;;;;4.60;1.30;;;;;;;18.25;45.85;99520.63;4969040;28;20114;-67
2024/01/05 03:45:49;;;;;;;3.03;1.05;;;;;;;18.29;45.96;99523.78;4969393;28;20051;-68
2024/01/05 03:48:14;;;;;;;2.63;0.90;;;;;;;18.32;46.06;99528.72;4969431;28;20057;-67
2024/01/05 03:50:40;;;;;;;2.28;0.90;;;;;;;18.30;45.84;99514.88;4969334;28;20053;-68
2024/01/05 03:53:06;;;;;;;4.13;1.10;;;;;;;18.26;46.20;99508.25;4969111;28;20035;-68
2024/01/05 03:55:31;;;;;;;3.95;1.02;;;;;;;18.30;46.11;99502.50;4968817;28;20038;-68
2024/01/05 03:57:56;;;;;;;3.25;1.05;;;;;;;18.16;45.96;99476.75;4968773;28;20038;-68
2024/01/05 04:00:22;;;;;;;2.80;0.98;;;;;;;18.22;45.96;99486.66;4969243;28;20042;-67
2024/01/05 04:02:47;;;;;;;2.72;1.00;;;;;;;18.23;46.15;99484.84;4967995;28;20042;-68
2024/01/05 04:05:13;;;;;;;3.42;0.93;;;;;;;18.29;46.00;99485.06;4968131;28;20035;-67
2024/01/05 04:07:38;;;;;;;3.53;1.20;;;;;;;18.28;45.91;99488.66;4968540;28;20069;-67
2024/01/05 04:10:05;;;;;;;3.70;1.02;;;;;;;18.30;45.97;99483.25;4968935;28;20072;-68
2024/01/05 04:12:30;;;;;;;3.63;0.90;;;;;;;18.26;45.89;99474.81;4968859;28;20023;-68
2024/01/05 04:14:56;;;;;;;4.05;1.10;;;;;;;18.26;45.97;99468.72;4968686;28;20038;-68
2024/01/05 04:17:21;;;;;;;3.90;1.17;;;;;;;18.26;45.85;99460.78;4968395;28;20958;-67
2024/01/05 04:19:47;;;;;;;3.47;1.00;;;;;;;18.28;45.74;99461.47;4968993;28;20471;-67
2024/01/05 04:22:12;;;;;;;3.25;0.98;;;;;;;18.17;45.59;99454.69;4968951;28;20031;-68
2024/01/05 04:24:37;;;;;;;2.47;0.90;;;;;;;18.19;45.90;99441.34;4968796;28;20077;-66
2024/01/05 04:27:03;;;;;;;3.15;0.80;;;;;;;18.20;45.89;99443.81;4968419;28;20046;-67
2024/01/05 04:29:28;;;;;;;3.42;1.00;;;;;;;18.24;45.65;99447.78;4968569;28;20041;-68
2024/01/05 04:31:53;;;;;;;4.60;1.30;;;;;;;18.18;45.80;99429.13;4968440;28;20556;-68
2024/01/05 04:34:18;;;;;;;3.07;0.90;;;;;;;18.18;45.93;99434.41;4968646;28;20264;-68
2024/01/05 04:36:44;;;;;;;4.75;1.40;;;;;;;18.25;45.81;99438.88;4967995;28;20268;-68
2024/01/05 04:39:09;;;;;;;3.72;1.23;;;;;;;18.16;45.80;99434.56;4968207;28;20122;-67
2024/01/05 04:41:35;;;;;;;4.10;1.20;;;;;;;18.23;45.79;99432.09;4983196;28;20488;-67
2024/01/05 04:44:00;;;;;;;3.45;1.20;;;;;;;18.23;45.83;99432.09;4951195;28;20030;-68
2024/01/05 04:46:25;;;;;;;3.00;1.10;;;;;;;18.24;45.73;99423.22;4968210;28;20054;-67
2024/01/05 04:48:51;;;;;;;2.95;0.95;;;;;;;18.23;45.89;99419.75;4950889;28;20081;-68
2024/01/05 04:51:16;;;;;;;2.67;0.90;;;;;;;18.23;46.00;99424.19;4968151;28;20035;-68
2024/01/05 04:53:41;;;;;;;2.80;0.73;;;;;;;18.21;45.64;99420.91;4968132;28;20035;-68
2024/01/05 04:56:07;;;;;;;3.57;1.00;;;;;;;18.16;45.84;99412.66;4968029;28;20038;-68
2024/01/05 04:58:32;;;;;;;3.20;0.93;;;;;;;18.21;45.62;99410.34;4967494;28;20765;-67
2024/01/05 05:00:57;;;;;;;3.72;1.05;;;;;;;18.16;45.71;99404.72;4967813;28;20456;-68
2024/01/05 05:03:25;;;;;;;3.58;1.40;;;;;;;18.18;45.73;99398.31;4967124;28;20038;-66
2024/01/05 05:05:50;;;;;;;2.00;0.70;;;;;;;18.19;45.59;99394.69;4967958;28;20025;-67
2024/01/05 05:08:15;;;;;;;4.32;1.20;;;;;;;18.13;45.66;99385.63;4966941;28;20060;-67
2024/01/05 05:10:41;;;;;;;3.15;0.88;;;;;;;18.10;45.44;99390.38;4967645;28;20031;-67
2024/01/05 05:13:06;;;;;;;2.45;1.00;;;;;;;18.10;45.57;99388.56;4967289;28;20062;-67
2024/01/05 05:15:32;;;;;;;4.47;1.25;;;;;;;18.16;45.31;99395.00;4968044;28;20030;-67
2024/01/05 05:17:57;;;;;;;4.35;1.00;;;;;;;18.06;45.50;99381.13;4967645;28;20144;-68
2024/01/05 05:20:22;;;;;;;3.78;0.93;;;;;;;18.07;45.27;99378.34;4967575;28;20029;-67
2024/01/05 05:22:48;;;;;;;2.85;0.90;;;;;;;18.17;45.54;99390.59;4967542;28;20034;-68
2024/01/05 05:25:13;;;;;;;3.25;1.08;;;;;;;18.07;45.33;99383.63;4967770;28;20027;-66
2024/01/05 05:27:39;;;;;;;2.55;0.88;;;;;;;18.06;45.36;99378.50;4967268;28;20058;-67
2024/01/05 05:30:06;;;;;;;3.33;1.00;;;;;;;18.15;45.13;99392.53;4967584;28;20113;-67
2024/01/05 05:32:31;;;;;;;4.57;0.93;;;;;;;18.14;45.26;99394.34;4967541;28;21414;-66
2024/01/05 05:34:56;;;;;;;4.03;1.08;;;;;;;18.05;45.35;99375.03;4982203;28;20038;-67
2024/01/05 05:37:22;;;;;;;3.65;1.00;;;;;;;18.11;45.36;99392.03;4967309;28;20038;-67
2024/01/05 05:39:47;;;;;;;4.00;1.10;;;;;;;18.09;45.20;99388.75;4967981;28;20027;-68
2024/01/05 05:42:12;;;;;;;1.92;0.73;;;;;;;18.12;45.40;99386.59;4967178;28;20454;-67
2024/01/05 05:44:38;;;;;;;2.97;0.80;;;;;;;18.06;45.15;99379.31;4966842;28;20027;-67
2024/01/05 05:47:03;;;;;;;3.23;0.93;;;;;;;18.12;45.03;99391.88;4967090;28;20125;-67
2024/01/05 05:49:28;;;;;;;3.58;1.08;;;;;;;18.04;45.13;99369.91;4967291;28;20269;-67
2024/01/05 05:51:54;;;;;;;2.63;0.95;;;;;;;18.10;45.09;99382.47;4966648;28;20069;-68
2024/01/05 05:54:20;;;;;;;2.65;0.90;;;;;;;18.02;45.13;99362.16;4967115;28;20041;-67
2024/01/05 05:56:45;;;;;;;4.15;0.85;;;;;;;18.12;44.92;99383.97;4967455;28;20037;-67
2024/01/05 05:59:10;;;;;;;3.25;0.77;;;;;;;18.00;45.06;99379.97;4967066;28;20023;-68
2024/01/05 06:01:36;;;;;;;2.08;0.80;;;;;;;18.01;44.90;99373.72;4967032;28;20043;-67
2024/01/05 06:04:01;;;;;;;1.90;0.60;;;;;;;18.10;44.56;99404.41;4966091;28;20117;-67
2024/01/05 06:06:26;;;;;;;3.10;0.73;;;;;;;17.99;44.24;99382.75;4965927;28;20062;-67
2024/01/05 06:08:51;;;;;;;2.05;0.60;;;;;;;18.08;44.54;99405.53;4966880;28;20034;-68
2024/01/05 06:11:18;;;;;;;1.58;0.63;;;;;;;18.09;44.53;99409.81;4967129;28;20039;-67
2024/01/05 06:13:44;;;;;;;1.65;0.60;;;;;;;18.09;44.68;99407.19;4965767;28;20042;-68
2024/01/05 06:16:10;;;;;;;2.22;0.70;;;;;;;18.11;44.78;99402.56;4966792;28;20038;-68
2024/01/05 06:18:36;;;;;;;1.77;0.60;;;;;;;18.12;44.72;99406.88;4967202;28;20518;-68
2024/01/05 06:21:01;;;;;;;1.80;0.60;;;;;;;18.07;45.12;99388.91;4971157;28;20034;-67
2024/01/05 06:23:26;;;;;;;3.28;0.80;;;;;;;18.06;45.07;99386.41;4970805;28;20038;-67
2024/01/05 06:25:51;;;;;;;2.45;0.70;;;;;;;18.08;45.17;99379.16;4970730;28;20106;-68
2024/01/05 06:28:17;;;;;;;1.83;0.70;;;;;;;18.09;45.22;99379.00;4970462;28;20066;-67
2024/01/05 06:30:43;;;;;;;1.90;0.65;;;;;;;18.22;45.27;99386.47;4953192;28;20130;-67
2024/01/05 06:33:08;;;;;;;1.08;0.55;;;;;;;18.22;45.32;99399.66;4970547;28;20033;-68
2024/01/05 06:35:34;;;;;;;1.27;0.50;;;;;;;18.27;45.06;99401.81;4970981;28;20035;-67
2024/01/05 06:37:59;;;;;;;1.40;0.50;;;;;;;18.21;45.04;99384.78;4970980;28;20031;-67
2024/01/05 06:40:24;;;;;;;1.75;0.65;;;;;;;18.31;44.96;99400.50;4971099;28;20031;-68
2024/01/05 06:42:50;;;;;;;2.63;0.60;;;;;;;18.33;44.83;99401.16;4970768;28;20045;-67
2024/01/05 06:45:16;;;;;;;1.45;0.50;;;;;;;18.35;44.89;99406.28;4970441;28;20047;-68
2024/01/05 06:47:41;;;;;;;1.98;0.50;;;;;;;18.33;44.70;99409.06;4970315;28;20031;-67
2024/01/05 06:50:07;;;;;;;1.77;0.60;;;;;;;18.29;44.74;99384.84;4969966;28;20042;-68
2024/01/05 06:52:33;;;;;;;0.80;0.47;;;;;;;18.33;44.85;99390.63;4970134;28;20035;-68
2024/01/05 06:54:59;;;;;;;1.40;0.50;;;;;;;18.45;44.63;99402.53;4970176;28;20073;-68
2024/01/05 06:57:25;;;;;;;1.88;0.70;;;;;;;18.44;44.52;99395.59;4969865;28;20066;-67
2024/01/05 06:59:50;;;;;;;1.30;0.50;;;;;;;18.47;44.40;99397.09;4970180;28;20053;-67
2024/01/05 07:02:16;;;;;;;1.85;0.60;;;;;;;18.42;44.64;99391.44;4969289;28;20043;-67
2024/01/05 07:04:41;;;;;;;1.88;0.65;;;;;;;18.43;44.39;99382.56;4969963;28;20109;-67
2024/01/05 07:07:07;;;;;;;0.73;0.40;;;;;;;18.50;44.57;99394.13;4970073;28;20085;-68
2024/01/05 07:09:32;;;;;;;2.28;0.68;;;;;;;18.45;44.23;99389.34;4970209;28;20034;-68
2024/01/05 07:11:59;;;;;;;1.45;0.50;;;;;;;18.52;44.41;99399.22;4969839;28;20093;-68
2024/01/05 07:14:25;;;;;;;0.63;0.30;;;;;;;18.44;44.28;99387.66;4969325;28;20037;-67
2024/01/05 07:16:51;;;;;;;1.30;0.47;;;;;;;18.50;44.22;99399.41;4969981;28;20067;-67
2024/01/05 07:19:16;;;;;;;0.90;0.47;;;;;;;18.42;44.33;99380.91;4969880;28;20062;-66
2024/01/05 07:21:43;;;;;;;1.75;0.50;;;;;;;18.46;44.06;99393.59;4970902;28;20472;-68
2024/01/05 07:24:09;;;;;;;1.27;0.45;;;;;;;18.51;44.03;99398.41;4970555;28;20082;-68
2024/01/05 07:26:34;;;;;;;0.75;0.40;;;;;;;18.50;44.07;99399.41;4969810;28;20495;-68
2024/01/05 07:28:59;;;;;;;1.80;0.40;;;;;;;18.44;44.07;99398.22;4969618;28;20483;-68
2024/01/05 07:31:25;;;;;;;1.13;0.43;;;;;;;18.55;44.11;99406.81;4969506;28;20034;-68
2024/01/05 07:33:50;;;;;;;1.20;0.40;;;;;;;18.54;44.24;99399.91;4969190;28;20765;-68
2024/01/05 07:36:15;;;;;;;1.23;0.45;;;;;;;18.56;43.96;99409.28;4969515;28;20260;-68
2024/01/05 07:38:40;;;;;;;1.05;0.40;;;;;;;18.47;44.41;99400.53;4969382;28;20035;-68
2024/01/05 07:41:06;;;;;;;1.23;0.40;;;;;;;18.47;44.26;99411.09;4969361;28;20039;-68
2024/01/05 07:43:31;;;;;;;2.53;0.60;;;;;;;18.58;44.45;99409.97;4969015;28;20031;-68
2024/01/05 07:45:57;;;;;;;1.40;0.50;;;;;;;18.58;44.17;99419.66;4969238;28;20082;-69
2024/01/05 07:48:22;;;;;;;1.58;0.60;;;;;;;18.57;44.21;99424.13;4969286;28;21261;-67
2024/01/05 07:50:48;;;;;;;3.75;0.60;;;;;;;18.58;44.41;99419.66;4969235;28;20043;-67
2024/01/05 07:53:14;;;;;;;1.25;0.40;;;;;;;18.53;44.14;99414.88;4968683;28;20039;-68
2024/01/05 07:55:39;;;;;;;1.73;0.70;;;;;;;18.57;44.28;99432.06;4968926;28;20030;-69
2024/01/05 07:58:04;;;;;;;2.25;0.50;;;;;;;18.56;44.37;99430.38;4969080;28;20018;-69
2024/01/05 08:00:31;;;;;;;1.65;0.40;;;;;;;18.52;44.31;99415.03;4969107;28;20049;-67
2024/01/05 08:02:57;;;;;;;1.25;0.35;;;;;;;18.56;44.50;99416.38;4967563;28;20042;-68
2024/01/05 08:05:23;;;;;;;1.80;0.40;;;;;;;18.54;44.67;99415.72;4969099;28;20474;-67
2024/01/05 08:07:48;;;;;;;1.15;0.47;;;;;;;18.56;44.43;99419.84;4968621;28;20045;-65
2024/01/05 08:10:13;;;;;;;2.13;0.53;;;;;;;18.55;44.39;99420.00;4969080;28;20043;-68
2024/01/05 08:12:39;;;;;;;1.90;0.50;;;;;;;18.57;44.43;99423.31;4969331;28;20281;-66
2024/01/05 08:15:05;;;;;;;1.23;0.45;;;;;;;18.57;44.48;99428.59;4968931;28;20045;-67
2024/01/05 08:17:30;;;;;;;0.50;0.30;;;;;;;18.56;44.37;99435.66;4968645;28;20044;-71
2024/01/05 08:19:55;;;;;;;1.20;0.40;;;;;;;18.48;44.20;99410.13;4968757;28;20073;-70
2024/01/05 08:22:21;;;;;;;1.65;0.70;;;;;;;18.45;44.44;99407.81;4968727;28;20063;-67
2024/01/05 08:24:46;;;;;;;0.93;0.40;;;;;;;18.48;44.29;99415.38;4965862;28;20418;-67
2024/01/05 08:27:12;;;;;;;1.83;0.55;;;;;;;18.46;44.27;99422.63;4965173;28;20038;-68
2024/01/05 08:29:37;;;;;;;1.33;0.43;;;;;;;18.54;44.39;99427.09;4967928;28;20090;-64
2024/01/05 08:32:03;;;;;;;1.30;0.50;;;;;;;18.54;44.30;99440.28;4968742;28;20035;-64
2024/01/05 08:34:29;;;;;;;0.93;0.40;;;;;;;18.51;44.26;99423.97;4968281;28;20030;-68
2024/01/05 08:36:54;;;;;;;1.52;0.50;;;;;;;18.51;44.45;99440.59;4968224;28;20030;-66
2024/01/05 08:39:19;;;;;;;1.73;0.40;;;;;;;18.42;44.68;99421.31;4966138;28;20472;-66
2024/01/05 08:41:45;;;;;;;0.65;0.25;;;;;;;18.54;44.54;99447.38;4968103;28;20042;-68
2024/01/05 08:44:10;;;;;;;1.77;0.50;;;;;;;18.46;44.73;99433.16;4968047;28;20033;-69
2024/01/05 08:46:35;;;;;;;1.33;0.60;;;;;;;18.51;44.38;99445.88;4967578;28;20601;-69
2024/01/05 08:49:01;;;;;;;1.08;0.50;;;;;;;18.46;44.69;99446.34;4968051;28;20065;-72
2024/01/05 08:51:26;;;;;;;1.02;0.35;;;;;;;18.46;44.66;99451.63;4968744;28;20141;-66
2024/01/05 08:53:53;;;;;;;2.03;0.57;;;;;;;18.44;44.98;99447.53;4968158;28;20027;-66
2024/01/05 08:56:18;;;;;;;1.02;0.40;;;;;;;18.45;44.39;99447.38;4967984;28;20027;-65
2024/01/05 08:58:43;;;;;;;1.27;0.40;;;;;;;18.56;44.53;99471.78;4968620;28;20480;-66
2024/01/05 09:01:08;;;;;;;1.35;0.40;;;;;;;18.48;44.37;99462.88;4968488;28;20129;-67
2024/01/05 09:03:34;;;;;;;1.85;0.73;;;;;;;18.54;44.53;99463.22;4967601;28;20085;-67
2024/01/05 09:05:59;;;;;;;0.80;0.40;;;;;;;18.59;44.72;99471.47;4968038;28;20039;-67
2024/01/05 09:08:25;;;;;;;3.17;0.73;;;;;;;18.60;44.68;99467.84;4968267;28;20027;-66
2024/01/05 09:10:50;;;;;;;2.20;0.50;;;;;;;18.53;44.51;99451.00;4968338;28;20092;-67
2024/01/05 09:13:16;;;;;;;1.15;0.40;;;;;;;18.54;44.72;99471.94;4967869;28;20042;-67
2024/01/05 09:15:41;;;;;;;1.83;0.30;;;;;;;18.59;44.90;99474.91;4967061;28;20046;-65
2024/01/05 09:18:07;;;;;;;1.45;0.47;;;;;;;18.64;45.06;99483.22;4951255;28;20035;-68
2024/01/05 09:20:32;;;;;;;2.20;0.40;;;;;;;18.64;45.12;99467.38;4968053;28;20072;-68
2024/01/05 09:22:57;;;;;;;1.30;0.50;;;;;;;18.57;45.20;99460.25;4968322;28;20062;-66
2024/01/05 09:25:23;;;;;;;4.28;0.40;;;;;;;18.52;45.09;99455.47;4968093;28;20114;-66
2024/01/05 09:27:48;;;;;;;2.72;0.40;;;;;;;18.58;45.19;99460.09;4968443;28;20400;-65
2024/01/05 09:30:14;;;;;;;2.60;0.50;;;;;;;18.68;45.08;99475.78;4968061;28;20038;-64
2024/01/05 09:32:39;;;;;;;2.58;0.40;;;;;;;18.58;45.65;99462.72;4967928;28;20033;-66
2024/01/05 09:35:05;;;;;;;3.73;0.40;;;;;;;18.64;45.52;99474.44;4967942;28;20121;-66
2024/01/05 09:37:30;;;;;;;2.05;0.50;;;;;;;18.68;45.00;99483.69;4967708;28;20265;-66
2024/01/05 09:39:55;;;;;;;1.05;0.40;;;;;;;18.58;44.93;99465.38;4967563;28;20034;-67
2024/01/05 09:42:22;;;;;;;2.20;0.40;;;;;;;18.66;44.86;99478.59;4967748;28;20039;-67
2024/01/05 09:44:48;;;;;;;0.70;0.30;;;;;;;18.52;44.96;99455.47;4967302;28;20042;-64
2024/01/05 09:47:18;;;;;;;3.58;0.50;;;;;;;18.67;45.32;99493.44;4967388;28;20053;-70
2024/01/05 09:49:44;;;;;;;1.75;0.40;;;;;;;18.66;45.48;99494.41;4967543;28;20066;-66
2024/01/05 09:52:14;;;;;;;4.22;0.70;;;;;;;18.60;45.47;99475.75;4965785;28;20046;-68
2024/01/05 09:54:40;;;;;;;5.93;0.98;;;;;;;18.59;45.60;99474.09;4964964;28;20479;-69
2024/01/05 09:57:07;;;;;;;3.95;0.70;;;;;;;18.62;45.69;99484.34;4966859;28;20109;-68
2024/01/05 09:59:34;;;;;;;1.58;0.50;;;;;;;18.61;45.45;99474.75;4967476;28;20034;-68
2024/01/05 10:02:04;;;;;;;3.42;0.88;;;;;;;18.73;45.60;99505.16;4966163;28;20035;-70
2024/01/05 10:04:30;;;;;;;2.15;0.40;;;;;;;18.73;45.71;99509.63;4967294;28;20042;-70
2024/01/05 10:07:02;;;;;;;3.00;0.73;;;;;;;18.71;45.51;99493.94;4967231;28;20038;-68
2024/01/05 10:09:30;;;;;;;1.35;0.43;;;;;;;18.74;45.49;99501.53;4967206;28;20042;-67
2024/01/05 10:11:57;;;;;;;3.28;0.60;;;;;;;18.74;45.40;99498.03;4982109;28;20506;-68
2024/01/05 10:14:25;;;;;;;7.45;0.80;;;;;;;18.75;45.70;99497.88;4967175;28;20059;-71
2024/01/05 10:17:06;;;;;;;3.38;0.60;;;;;;;18.63;45.83;99478.09;4917846;28;20141;-71
2024/01/05 10:19:32;;;;;;;5.00;0.68;;;;;;;18.71;45.78;99488.66;4967154;28;20399;-68
2024/01/05 10:22:11;;;;;;;3.42;1.00;;;;;;;18.69;45.67;99480.06;4967450;28;20113;-69
2024/01/05 10:24:36;;;;;;;7.85;0.80;;;;;;;18.76;45.70;99494.28;4967114;28;20039;-69
2024/01/05 10:27:02;;;;;;;5.00;0.82;;;;;;;18.78;45.89;99496.75;4966695;28;20035;-69
2024/01/05 10:29:27;;;;;;;4.72;0.95;;;;;;;18.76;45.91;99489.00;4966909;28;20027;-69
2024/01/05 10:31:52;;;;;;;3.78;0.60;;;;;;;18.78;45.73;99494.94;4967269;28;20034;-69
2024/01/05 10:34:18;;;;;;;5.57;0.80;;;;;;;18.75;45.75;99479.41;4966885;28;20034;-68
2024/01/05 10:36:43;;;;;;;4.68;0.60;;;;;;;18.77;45.81;99489.81;4967511;28;20551;-69
2024/01/05 10:39:14;;;;;;;2.88;0.80;;;;;;;18.73;45.64;99491.94;4967248;28;20030;-69
2024/01/05 10:41:39;;;;;;;7.68;0.77;;;;;;;18.66;45.47;99485.69;4967002;28;20023;-68
2024/01/05 10:44:06;;;;;;;4.75;0.70;;;;;;;18.76;45.67;99494.28;4967020;28;20115;-69
2024/01/05 10:46:32;;;;;;;3.72;0.70;;;;;;;18.75;45.63;99505.81;4966737;28;20388;-68
2024/01/05 10:48:57;;;;;;;6.13;0.90;;;;;;;18.75;45.54;99497.06;4966771;28;20126;-69
2024/01/05 10:51:25;;;;;;;4.53;0.80;;;;;;;18.76;45.75;99510.09;4966965;28;20110;-68
2024/01/05 10:53:51;;;;;;;5.78;0.70;;;;;;;18.74;45.59;99498.03;4966741;28;20380;-69
2024/01/05 10:56:19;;;;;;;3.25;0.63;;;;;;;18.74;45.80;99492.78;4967215;28;20035;-68
2024/01/05 10:58:47;;;;;;;4.18;0.65;;;;;;;18.79;45.81;99501.06;4966791;28;20510;-68
2024/01/05 11:01:14;;;;;;;8.05;0.93;;;;;;;18.72;45.84;99489.47;4965741;28;20034;-68
2024/01/05 11:03:43;;;;;;;6.95;0.70;;;;;;;18.73;45.68;99486.69;4965230;28;20039;-67
2024/01/05 11:06:10;;;;;;;2.50;0.50;;;;;;;18.75;45.99;99497.88;4968134;28;20081;-66
2024/01/05 11:08:47;;;;;;;2.00;0.57;;;;;;;18.82;45.92;99492.81;4969922;28;20035;-66
2024/01/05 11:11:28;;;;;;;4.03;0.90;;;;;;;18.77;45.88;99484.53;4970139;28;20065;-67
2024/01/05 11:14:02;;;;;;;5.07;0.52;;;;;;;18.83;45.79;99503.22;4970263;28;20046;-70
2024/01/05 11:16:45;;;;;;;;;;;;;;;18.81;45.47;99502.53;4970573;28;20047;-68
2024/01/05 11:19:29;;;;;;;5.07;0.82;;;;;;;18.68;45.38;99479.25;4969880;28;19925;-68
2024/01/05 11:21:59;;;;;;;7.50;0.90;;;;;;;18.72;45.37;99492.94;4970064;28;20050;-68
2024/01/05 11:24:24;;;;;;;2.17;0.77;;;;;;;18.77;45.31;99501.22;4970032;28;20073;-66
2024/01/05 11:26:50;;;;;;;4.43;0.52;;;;;;;18.68;45.29;99494.25;4969786;28;20071;-68
2024/01/05 11:29:53;;;;;;;4.60;0.55;;;;;;;18.76;45.42;99510.09;4969492;28;20121;-63